Time;durP1;ratioP1;P1;durP2;ratioP2;P2;SDS_P1;SDS_P2;PMS_P1;PMS_P2;Temp;Humidity;BMP_temperature;BMP_pressure;BME280_temperature;BME280_humidity;BME280_pressure;Samples;Min_cycle;Max_cycle;Signal;HPM_P1;HPM_P2
2021/10/14 00:02:21;;;;;;;6.43;4.17;;;;;;;;;;4996910;28;20595;-87
2021/10/14 00:05:24;;;;;;;6.50;4.67;;;;;;;;;;5014173;28;21244;-87
2021/10/14 00:08:29;;;;;;;6.40;4.50;;;;;;;;;;5013813;28;20622;-87
2021/10/14 00:11:32;;;;;;;5.90;4.80;;;;;;;;;;5028786;28;20192;-87
2021/10/14 00:14:37;;;;;;;6.53;4.87;;;;;;;;;;5013544;28;20228;-87
2021/10/14 00:17:41;;;;;;;7.73;4.90;;;;;;;;;;5015601;28;20587;-87
2021/10/14 00:20:45;;;;;;;6.60;5.07;;;;;;;;;;5001317;28;20188;-87
2021/10/14 00:23:49;;;;;;;8.50;5.30;;;;;;;;;;5023844;28;20651;-87
2021/10/14 00:26:53;;;;;;;7.67;5.30;;;;;;;;;;5013088;28;20186;-87
2021/10/14 00:29:58;;;;;;;9.63;4.90;;;;;;;;;;5023533;28;20209;-86
2021/10/14 00:33:02;;;;;;;9.20;5.40;;;;;;;;;;5012899;28;20185;-87
2021/10/14 00:36:06;;;;;;;9.60;5.30;;;;;;;;;;5024615;28;20189;-87
2021/10/14 00:39:10;;;;;;;9.03;6.63;;;;;;;;;;5023528;28;20197;-87
2021/10/14 00:42:14;;;;;;;10.57;6.73;;;;;;;;;;5012582;28;20640;-86
2021/10/14 00:45:20;;;;;;;11.93;7.33;;;;;;;;;;5021854;28;20224;-87
2021/10/14 00:48:24;;;;;;;10.07;7.13;;;;;;;;;;5006611;28;20675;-87
2021/10/14 00:51:29;;;;;;;14.93;8.30;;;;;;;;;;4993456;28;20185;-87
2021/10/14 00:54:33;;;;;;;10.20;7.27;;;;;;;;;;4995804;28;20224;-87
2021/10/14 00:57:37;;;;;;;8.47;6.57;;;;;;;;;;5011533;28;20181;-86
2021/10/14 01:00:41;;;;;;;10.10;6.97;;;;;;;;;;5008471;28;20190;-87
2021/10/14 01:03:45;;;;;;;9.93;7.03;;;;;;;;;;4992951;28;20189;-86
2021/10/14 01:06:49;;;;;;;8.20;6.50;;;;;;;;;;5023545;28;20188;-87
2021/10/14 01:09:53;;;;;;;12.43;6.63;;;;;;;;;;5023353;28;20193;-86
2021/10/14 01:12:58;;;;;;;8.27;6.23;;;;;;;;;;5012016;28;20528;-87
2021/10/14 01:16:05;;;;;;;9.37;6.27;;;;;;;;;;5011987;28;20563;-87
2021/10/14 01:19:11;;;;;;;7.57;6.00;;;;;;;;;;5016149;28;20197;-87
2021/10/14 01:22:15;;;;;;;7.70;5.97;;;;;;;;;;5022976;28;20204;-87
2021/10/14 01:25:19;;;;;;;10.23;6.63;;;;;;;;;;5011463;28;20221;-87
2021/10/14 01:28:23;;;;;;;9.13;6.40;;;;;;;;;;5000526;28;20205;-87
2021/10/14 01:31:28;;;;;;;11.90;6.00;;;;;;;;;;5011192;28;20184;-86
2021/10/14 01:34:32;;;;;;;9.60;6.77;;;;;;;;;;5011602;28;20224;-85
2021/10/14 01:37:37;;;;;;;9.53;6.07;;;;;;;;;;4998399;28;20196;-85
2021/10/14 01:40:41;;;;;;;9.43;5.97;;;;;;;;;;4984567;28;20208;-85
2021/10/14 01:43:45;;;;;;;7.87;5.70;;;;;;;;;;5012705;28;20198;-85
2021/10/14 01:46:49;;;;;;;7.83;5.80;;;;;;;;;;5004972;28;20256;-85
2021/10/14 01:49:53;;;;;;;9.67;5.97;;;;;;;;;;5011699;28;20181;-85
2021/10/14 01:52:58;;;;;;;9.60;5.97;;;;;;;;;;5011373;28;20591;-85
2021/10/14 01:56:03;;;;;;;10.20;6.90;;;;;;;;;;5022933;28;20624;-85
2021/10/14 01:59:07;;;;;;;11.43;6.63;;;;;;;;;;5011037;28;20192;-85
2021/10/14 02:02:11;;;;;;;12.57;7.10;;;;;;;;;;5011780;28;20567;-85
2021/10/14 02:05:15;;;;;;;10.30;6.60;;;;;;;;;;4987421;28;20656;-85
2021/10/14 02:08:19;;;;;;;10.70;6.77;;;;;;;;;;5002320;28;20647;-85
2021/10/14 02:11:23;;;;;;;10.70;7.03;;;;;;;;;;5002469;28;20197;-85
2021/10/14 02:14:27;;;;;;;14.30;7.27;;;;;;;;;;5013609;28;20225;-85
2021/10/14 02:17:31;;;;;;;9.97;6.63;;;;;;;;;;5002536;28;21114;-86
2021/10/14 02:20:36;;;;;;;9.50;6.37;;;;;;;;;;4983224;28;20538;-85
2021/10/14 02:23:40;;;;;;;12.00;7.30;;;;;;;;;;5005370;28;20205;-85
2021/10/14 02:26:44;;;;;;;11.77;6.47;;;;;;;;;;4993916;28;20198;-85
2021/10/14 02:29:48;;;;;;;12.63;6.77;;;;;;;;;;4999192;28;20205;-85
2021/10/14 02:32:52;;;;;;;12.30;7.20;;;;;;;;;;5013259;28;20561;-85
2021/10/14 02:35:56;;;;;;;12.70;7.30;;;;;;;;;;5002179;28;20225;-85
2021/10/14 02:39:01;;;;;;;11.93;8.03;;;;;;;;;;4991032;28;20189;-85
2021/10/14 02:42:06;;;;;;;15.60;8.03;;;;;;;;;;5013303;28;20656;-85
2021/10/14 02:45:10;;;;;;;14.80;8.30;;;;;;;;;;5002246;28;20624;-85
2021/10/14 02:48:14;;;;;;;12.63;8.03;;;;;;;;;;5001764;28;20229;-85
2021/10/14 02:51:18;;;;;;;14.23;8.47;;;;;;;;;;5001891;28;20205;-86
2021/10/14 02:54:22;;;;;;;12.73;8.37;;;;;;;;;;5013037;28;20223;-85
2021/10/14 02:57:26;;;;;;;13.60;8.33;;;;;;;;;;4993728;28;20190;-85
2021/10/14 03:00:31;;;;;;;12.77;8.30;;;;;;;;;;5003790;28;20190;-85
2021/10/14 03:03:35;;;;;;;13.63;8.80;;;;;;;;;;5001206;28;20205;-86
2021/10/14 03:06:39;;;;;;;12.60;8.83;;;;;;;;;;5010338;28;20204;-87
2021/10/14 03:09:43;;;;;;;15.70;9.27;;;;;;;;;;5009557;28;20225;-87
2021/10/14 03:12:47;;;;;;;13.07;8.97;;;;;;;;;;5019343;28;20188;-87
2021/10/14 03:15:51;;;;;;;13.90;8.70;;;;;;;;;;5010244;28;20220;-87
2021/10/14 03:18:55;;;;;;;13.77;8.60;;;;;;;;;;5009080;28;20197;-87
2021/10/14 03:21:59;;;;;;;13.27;9.00;;;;;;;;;;5009773;28;20208;-87
2021/10/14 03:25:04;;;;;;;15.10;8.97;;;;;;;;;;5009856;28;20221;-87
2021/10/14 03:28:08;;;;;;;14.20;8.43;;;;;;;;;;5009465;28;20212;-87
2021/10/14 03:31:12;;;;;;;10.67;7.43;;;;;;;;;;5020766;28;20185;-87
2021/10/14 03:34:16;;;;;;;15.80;8.97;;;;;;;;;;5001383;28;20229;-87
2021/10/14 03:37:20;;;;;;;15.00;8.83;;;;;;;;;;5003372;28;20552;-87
2021/10/14 03:40:24;;;;;;;15.07;10.03;;;;;;;;;;5017834;28;20200;-87
2021/10/14 03:43:28;;;;;;;19.70;11.63;;;;;;;;;;5020707;28;20200;-87
2021/10/14 03:46:32;;;;;;;19.03;11.03;;;;;;;;;;4990458;28;20185;-87
2021/10/14 03:49:37;;;;;;;17.33;10.33;;;;;;;;;;5014837;28;20224;-87
2021/10/14 03:52:41;;;;;;;15.87;9.90;;;;;;;;;;5009704;28;20185;-86
2021/10/14 03:55:45;;;;;;;16.37;10.67;;;;;;;;;;5009773;28;20553;-86
2021/10/14 03:58:49;;;;;;;16.20;10.43;;;;;;;;;;5020408;28;20181;-86
2021/10/14 04:01:53;;;;;;;19.50;11.03;;;;;;;;;;5001140;28;20194;-85
2021/10/14 04:04:58;;;;;;;17.00;10.37;;;;;;;;;;4993448;28;20230;-85
2021/10/14 04:08:02;;;;;;;15.23;9.83;;;;;;;;;;4992961;28;20186;-85
2021/10/14 04:11:06;;;;;;;15.83;10.57;;;;;;;;;;4981801;28;20186;-85
2021/10/14 04:14:11;;;;;;;16.77;10.17;;;;;;;;;;4996097;28;20221;-85
2021/10/14 04:17:15;;;;;;;16.40;10.63;;;;;;;;;;5001186;28;20185;-85
2021/10/14 04:20:19;;;;;;;17.07;10.67;;;;;;;;;;4993471;28;20174;-85
2021/10/14 04:23:24;;;;;;;16.83;10.73;;;;;;;;;;4970965;28;20527;-85
2021/10/14 04:26:28;;;;;;;18.90;11.27;;;;;;;;;;4988676;28;20205;-85
2021/10/14 04:29:32;;;;;;;18.33;11.47;;;;;;;;;;5012695;28;20672;-85
2021/10/14 04:32:36;;;;;;;20.17;11.07;;;;;;;;;;4985122;28;20190;-86
2021/10/14 04:35:40;;;;;;;17.33;11.37;;;;;;;;;;4996169;28;20581;-87
2021/10/14 04:38:45;;;;;;;18.30;11.60;;;;;;;;;;4996283;28;20514;-87
2021/10/14 04:41:49;;;;;;;19.67;12.00;;;;;;;;;;4996170;28;20183;-85
2021/10/14 04:44:53;;;;;;;17.87;10.63;;;;;;;;;;4995862;28;20562;-85
2021/10/14 04:47:57;;;;;;;18.93;11.37;;;;;;;;;;4996370;28;20182;-85
2021/10/14 04:51:02;;;;;;;19.07;11.73;;;;;;;;;;4995694;28;20650;-85
2021/10/14 04:54:06;;;;;;;17.43;11.07;;;;;;;;;;5003002;28;20229;-87
2021/10/14 04:57:10;;;;;;;17.43;10.93;;;;;;;;;;4984532;28;20206;-86
2021/10/14 05:00:15;;;;;;;19.23;11.17;;;;;;;;;;5011330;28;20189;-88
2021/10/14 05:03:19;;;;;;;18.57;11.43;;;;;;;;;;5000568;28;20288;-89
2021/10/14 05:06:23;;;;;;;21.73;11.20;;;;;;;;;;5014712;28;20205;-89
2021/10/14 05:09:29;;;;;;;18.67;11.90;;;;;;;;;;5001974;28;20213;-90
2021/10/14 05:12:35;;;;;;;15.80;10.60;;;;;;;;;;4993119;28;20185;-89
2021/10/14 05:15:40;;;;;;;17.97;11.73;;;;;;;;;;5003485;28;20217;-89
2021/10/14 05:18:44;;;;;;;18.17;11.40;;;;;;;;;;5014906;28;20181;-89
2021/10/14 05:21:49;;;;;;;17.57;11.93;;;;;;;;;;5003287;28;20197;-89
2021/10/14 05:24:53;;;;;;;16.97;11.90;;;;;;;;;;5013047;28;20229;-89
2021/10/14 05:27:57;;;;;;;19.93;12.07;;;;;;;;;;5003019;28;20553;-88
2021/10/14 05:31:01;;;;;;;21.27;12.50;;;;;;;;;;5002946;28;20674;-88
2021/10/14 05:34:05;;;;;;;19.97;12.20;;;;;;;;;;5002607;28;20225;-88
2021/10/14 05:37:09;;;;;;;16.50;11.10;;;;;;;;;;4995804;28;20541;-89
2021/10/14 05:40:13;;;;;;;18.03;11.80;;;;;;;;;;5001960;28;20182;-87
2021/10/14 05:43:17;;;;;;;22.73;15.70;;;;;;;;;;5000820;28;20205;-87
2021/10/14 05:46:21;;;;;;;21.67;14.20;;;;;;;;;;4995232;28;20198;-87
2021/10/14 05:49:26;;;;;;;18.57;12.27;;;;;;;;;;4993476;28;20225;-86
2021/10/14 05:52:30;;;;;;;22.00;13.83;;;;;;;;;;5003316;28;20185;-86
2021/10/14 05:55:35;;;;;;;23.90;13.33;;;;;;;;;;5025848;28;20221;-86
2021/10/14 05:58:39;;;;;;;17.43;12.00;;;;;;;;;;5002891;28;20672;-86
2021/10/14 06:01:44;;;;;;;20.23;12.47;;;;;;;;;;5002978;28;20189;-87
2021/10/14 06:04:50;;;;;;;22.53;11.97;;;;;;;;;;5013437;28;20236;-87
2021/10/14 06:07:54;;;;;;;18.20;12.93;;;;;;;;;;5002348;28;20194;-87
2021/10/14 06:10:58;;;;;;;19.03;12.07;;;;;;;;;;5003422;28;20213;-87
2021/10/14 06:14:02;;;;;;;22.27;12.80;;;;;;;;;;5003465;28;20221;-87
2021/10/14 06:17:06;;;;;;;25.67;12.83;;;;;;;;;;4983524;28;20178;-87
2021/10/14 06:20:11;;;;;;;21.40;13.97;;;;;;;;;;4987660;28;20182;-87
2021/10/14 06:23:15;;;;;;;20.03;12.60;;;;;;;;;;5013504;28;20193;-87
2021/10/14 06:26:19;;;;;;;20.43;12.53;;;;;;;;;;5014058;28;20189;-87
2021/10/14 06:29:23;;;;;;;19.10;13.03;;;;;;;;;;5013451;28;20217;-87
2021/10/14 06:32:27;;;;;;;20.30;12.27;;;;;;;;;;5002849;28;20193;-87
2021/10/14 06:35:31;;;;;;;21.50;12.30;;;;;;;;;;5001577;28;20225;-91
2021/10/14 06:38:35;;;;;;;19.77;13.37;;;;;;;;;;4993917;28;20205;-90
2021/10/14 06:41:39;;;;;;;19.53;12.53;;;;;;;;;;4994330;28;20186;-90
2021/10/14 06:44:43;;;;;;;22.33;13.13;;;;;;;;;;4971572;28;20226;-90
2021/10/14 06:47:48;;;;;;;19.97;13.13;;;;;;;;;;5006062;28;20205;-90
2021/10/14 06:50:52;;;;;;;20.90;12.80;;;;;;;;;;4997616;28;20214;-89
2021/10/14 06:53:57;;;;;;;22.03;12.23;;;;;;;;;;5012415;28;20225;-89
2021/10/14 06:57:04;;;;;;;20.07;12.30;;;;;;;;;;5001455;28;20649;-86
2021/10/14 07:00:08;;;;;;;18.70;12.47;;;;;;;;;;5012906;28;20181;-89
2021/10/14 07:03:14;;;;;;;18.73;11.87;;;;;;;;;;5012887;28;20201;-89
2021/10/14 07:06:18;;;;;;;18.30;11.97;;;;;;;;;;5022087;28;20185;-89
2021/10/14 07:09:22;;;;;;;19.87;12.73;;;;;;;;;;5010279;28;20212;-89
2021/10/14 07:12:28;;;;;;;20.37;13.23;;;;;;;;;;5021363;28;20180;-89
2021/10/14 07:15:32;;;;;;;22.30;13.13;;;;;;;;;;4999912;28;20232;-89
2021/10/14 07:18:36;;;;;;;20.20;12.47;;;;;;;;;;5007752;28;20193;-89
2021/10/14 07:21:40;;;;;;;19.70;12.17;;;;;;;;;;4996636;28;20185;-89
2021/10/14 07:24:45;;;;;;;18.73;12.13;;;;;;;;;;5010125;28;20212;-89
2021/10/14 07:27:49;;;;;;;19.40;11.83;;;;;;;;;;5021124;28;20197;-89
2021/10/14 07:30:54;;;;;;;19.77;11.80;;;;;;;;;;5010046;28;20212;-89
2021/10/14 07:33:58;;;;;;;17.33;11.33;;;;;;;;;;5001111;28;20229;-89
2021/10/14 07:37:03;;;;;;;18.03;12.13;;;;;;;;;;5010989;28;20196;-89
2021/10/14 07:40:08;;;;;;;21.83;11.80;;;;;;;;;;4998976;28;20180;-89
2021/10/14 07:43:14;;;;;;;19.03;11.10;;;;;;;;;;5019829;28;20193;-89
2021/10/14 07:46:18;;;;;;;17.30;11.10;;;;;;;;;;5009513;28;20652;-89
2021/10/14 07:49:22;;;;;;;15.27;10.50;;;;;;;;;;5009128;28;20200;-89
2021/10/14 07:52:26;;;;;;;16.43;10.57;;;;;;;;;;4996175;28;20209;-89
2021/10/14 07:55:30;;;;;;;14.17;10.70;;;;;;;;;;5009618;28;20220;-89
2021/10/14 07:58:35;;;;;;;16.43;10.90;;;;;;;;;;5009706;28;20176;-89
2021/10/14 08:01:39;;;;;;;16.37;10.83;;;;;;;;;;5008867;28;20189;-89
2021/10/14 08:04:44;;;;;;;17.23;10.57;;;;;;;;;;4994254;28;20228;-89
2021/10/14 08:07:48;;;;;;;15.53;10.00;;;;;;;;;;5005077;28;20189;-89
2021/10/14 08:10:54;;;;;;;12.30;9.23;;;;;;;;;;5016155;28;20225;-90
2021/10/14 08:13:58;;;;;;;14.53;9.57;;;;;;;;;;5004848;28;20212;-89
2021/10/14 08:17:02;;;;;;;13.77;9.97;;;;;;;;;;5004830;28;20178;-89
2021/10/14 08:20:08;;;;;;;13.63;9.53;;;;;;;;;;5016242;28;20201;-89
2021/10/14 08:23:12;;;;;;;12.83;9.60;;;;;;;;;;5004380;28;20209;-90
2021/10/14 08:26:16;;;;;;;13.60;8.90;;;;;;;;;;5015378;28;20202;-89
2021/10/14 08:29:20;;;;;;;13.77;9.17;;;;;;;;;;5004139;28;20197;-89
2021/10/14 08:32:24;;;;;;;16.90;9.90;;;;;;;;;;4993035;28;20201;-89
2021/10/14 08:35:35;;;;;;;13.70;9.00;;;;;;;;;;5001649;28;20236;-89
2021/10/14 08:38:40;;;;;;;11.17;8.73;;;;;;;;;;5004189;28;20205;-89
2021/10/14 08:41:47;;;;;;;17.27;9.10;;;;;;;;;;5004800;28;20521;-89
2021/10/14 08:44:52;;;;;;;16.03;8.17;;;;;;;;;;5003473;28;20229;-89
2021/10/14 08:47:56;;;;;;;12.53;8.73;;;;;;;;;;5004773;28;20645;-89
2021/10/14 08:51:01;;;;;;;14.93;9.00;;;;;;;;;;5004359;28;20217;-90
2021/10/14 08:54:05;;;;;;;12.17;7.90;;;;;;;;;;5003784;28;20225;-90
2021/10/14 08:57:09;;;;;;;11.70;7.60;;;;;;;;;;5004520;28;20518;-90
2021/10/14 09:00:13;;;;;;;12.13;7.07;;;;;;;;;;5004180;28;20197;-88
2021/10/14 09:03:29;;;;;;;11.27;7.10;;;;;;;;;;5003507;28;20209;-89
2021/10/14 09:06:38;;;;;;;9.77;6.47;;;;;;;;;;5076018;23;20227;-87
2021/10/14 09:09:44;;;;;;;10.70;5.73;;;;;;;;;;5040267;28;20195;-88
2021/10/14 09:12:48;;;;;;;9.43;6.00;;;;;;;;;;5052257;28;20195;-88
2021/10/14 09:15:52;;;;;;;8.70;5.27;;;;;;;;;;5045662;28;20228;-87
2021/10/14 09:19:16;;;;;;;8.57;5.53;;;;;;;;;;5006831;28;20659;-88
2021/10/14 09:22:21;;;;;;;9.87;5.97;;;;;;;;;;5007636;28;20192;-88
2021/10/14 09:25:42;;;;;;;11.57;5.53;;;;;;;;;;5031437;28;20196;-87
2021/10/14 09:28:45;;;;;;;8.63;5.60;;;;;;;;;;5022132;28;20539;-88
2021/10/14 09:31:51;;;;;;;8.77;5.60;;;;;;;;;;5043527;28;20220;-88
2021/10/14 09:34:55;;;;;;;8.13;5.30;;;;;;;;;;5020707;28;20180;-87
2021/10/14 09:38:00;;;;;;;9.53;5.50;;;;;;;;;;5020558;28;20184;-88
2021/10/14 09:41:07;;;;;;;6.93;5.30;;;;;;;;;;5014543;28;20180;-87
2021/10/14 09:44:18;;;;;;;8.33;5.50;;;;;;;;;;5019042;28;20188;-88
2021/10/14 09:47:23;;;;;;;8.07;5.50;;;;;;;;;;5020055;28;20598;-88
2021/10/14 09:50:28;;;;;;;10.47;5.90;;;;;;;;;;5020438;28;20212;-88
2021/10/14 09:53:32;;;;;;;9.83;6.10;;;;;;;;;;5042357;28;20196;-88
2021/10/14 09:56:36;;;;;;;9.40;6.90;;;;;;;;;;5031097;28;20220;-87
2021/10/14 09:59:43;;;;;;;8.63;6.33;;;;;;;;;;5012703;28;20192;-88
2021/10/14 10:02:48;;;;;;;8.83;6.10;;;;;;;;;;5031020;28;20655;-87
2021/10/14 10:05:56;;;;;;;12.87;7.13;;;;;;;;;;5030439;28;20228;-88
2021/10/14 10:09:08;;;;;;;14.87;6.70;;;;;;;;;;5017283;28;20215;-88
2021/10/14 10:12:13;;;;;;;11.00;6.50;;;;;;;;;;5010819;28;20213;-87
2021/10/14 10:15:43;;;;;;;9.03;6.93;;;;;;;;;;5018542;28;20651;-88
2021/10/14 10:18:58;;;;;;;22.80;11.80;;;;;;;;;;5030658;28;20535;-88
2021/10/14 10:22:02;;;;;;;46.90;23.17;;;;;;;;;;5019385;28;20219;-88
2021/10/14 10:25:24;;;;;;;13.40;7.37;;;;;;;;;;5030874;28;20199;-88
2021/10/14 10:28:37;;;;;;;19.73;10.60;;;;;;;;;;5019462;28;20192;-88
2021/10/14 10:31:57;;;;;;;20.20;11.03;;;;;;;;;;5030788;28;20219;-88
2021/10/14 10:35:03;;;;;;;20.13;12.70;;;;;;;;;;5010631;28;20200;-88
2021/10/14 10:38:20;;;;;;;11.33;7.20;;;;;;;;;;5041008;28;20697;-88
2021/10/14 10:41:24;;;;;;;7.30;5.87;;;;;;;;;;5017706;28;20188;-87
2021/10/14 10:44:40;;;;;;;10.17;6.60;;;;;;;;;;5030170;28;20200;-90
2021/10/14 10:47:53;;;;;;;9.17;6.30;;;;;;;;;;5019174;28;20204;-90
2021/10/14 10:50:58;;;;;;;12.77;8.37;;;;;;;;;;5019252;28;20212;-89
2021/10/14 10:54:02;;;;;;;9.20;5.57;;;;;;;;;;5018969;28;20180;-90
2021/10/14 10:57:47;;;;;;;6.57;5.00;;;;;;;;;;5041866;28;20215;-90
2021/10/14 11:00:51;;;;;;;14.07;6.07;;;;;;;;;;5030178;28;20184;-90
2021/10/14 11:04:07;;;;;;;8.07;5.20;;;;;;;;;;5030194;28;20206;-90
2021/10/14 11:07:11;;;;;;;8.70;4.57;;;;;;;;;;5018422;28;20694;-90
2021/10/14 11:10:28;;;;;;;7.77;4.30;;;;;;;;;;5030408;28;20539;-90
2021/10/14 11:13:37;;;;;;;10.00;4.50;;;;;;;;;;5041676;28;20189;-90
2021/10/14 11:16:41;;;;;;;5.03;3.40;;;;;;;;;;5029896;28;20717;-90
2021/10/14 11:19:45;;;;;;;6.97;4.07;;;;;;;;;;5030248;28;20176;-89
2021/10/14 11:22:49;;;;;;;7.57;4.00;;;;;;;;;;5018529;28;20176;-90
2021/10/14 11:26:13;;;;;;;7.07;3.47;;;;;;;;;;5030054;28;20224;-90
2021/10/14 11:29:22;;;;;;;6.93;4.13;;;;;;;;;;5019207;28;20184;-90
2021/10/14 11:32:33;;;;;;;6.03;3.70;;;;;;;;;;5040944;28;20204;-90
2021/10/14 11:35:39;;;;;;;7.90;3.67;;;;;;;;;;5030097;28;20551;-90
2021/10/14 11:38:55;;;;;;;9.47;3.93;;;;;;;;;;5030128;28;20519;-89
2021/10/14 11:42:02;;;;;;;5.70;3.47;;;;;;;;;;5044696;28;20192;-90
2021/10/14 11:45:07;;;;;;;5.97;3.93;;;;;;;;;;5034184;28;20630;-90
2021/10/14 11:48:35;;;;;;;8.67;4.00;;;;;;;;;;5051174;28;20639;-90
2021/10/14 11:51:39;;;;;;;5.47;3.47;;;;;;;;;;5033849;28;20212;-90
2021/10/14 11:54:44;;;;;;;6.13;3.43;;;;;;;;;;5022572;28;20189;-90
2021/10/14 11:57:48;;;;;;;6.13;3.43;;;;;;;;;;5022457;28;20184;-90
2021/10/14 12:00:57;;;;;;;6.20;3.80;;;;;;;;;;5033549;28;20195;-90
2021/10/14 12:04:02;;;;;;;7.93;3.90;;;;;;;;;;5022260;28;20189;-90
2021/10/14 12:07:07;;;;;;;8.67;4.03;;;;;;;;;;5033028;28;20697;-89
2021/10/14 12:10:40;;;;;;;6.77;3.27;;;;;;;;;;5022193;28;20192;-90
2021/10/14 12:13:59;;;;;;;6.77;3.43;;;;;;;;;;5045051;28;20188;-90
2021/10/14 12:17:07;;;;;;;5.03;3.53;;;;;;;;;;5022059;28;20220;-89
2021/10/14 12:20:20;;;;;;;6.50;3.30;;;;;;;;;;5021983;28;20188;-89
2021/10/14 12:23:29;;;;;;;9.53;3.70;;;;;;;;;;5033284;28;20192;-90
2021/10/14 12:26:35;;;;;;;5.73;3.27;;;;;;;;;;5044175;28;20219;-90
2021/10/14 12:29:45;;;;;;;5.57;3.43;;;;;;;;;;5021936;28;20635;-90
2021/10/14 12:32:51;;;;;;;5.43;3.40;;;;;;;;;;5022120;28;20212;-90
2021/10/14 12:36:01;;;;;;;8.43;3.40;;;;;;;;;;5044179;28;20227;-90
2021/10/14 12:39:17;;;;;;;4.17;3.10;;;;;;;;;;5021949;28;20203;-90
2021/10/14 12:42:43;;;;;;;7.87;3.10;;;;;;;;;;5044428;28;20172;-90
2021/10/14 12:52:23;;;;;;;5.50;3.80;;;;;;;;;;5032979;28;20216;-90
2021/10/14 12:55:27;;;;;;;5.83;4.70;;;;;;;;;;5044182;28;20184;-90
2021/10/14 12:58:32;;;;;;;4.90;3.70;;;;;;;;;;5043996;28;20188;-90
2021/10/14 13:01:38;;;;;;;8.10;3.53;;;;;;;;;;5032424;28;20543;-90
2021/10/14 13:04:42;;;;;;;5.57;3.43;;;;;;;;;;5021575;28;20184;-90
2021/10/14 13:07:46;;;;;;;7.00;3.37;;;;;;;;;;5043723;28;20184;-90
2021/10/14 13:10:54;;;;;;;6.97;3.80;;;;;;;;;;5032358;28;20189;-90
2021/10/14 13:14:03;;;;;;;8.90;3.83;;;;;;;;;;5021271;28;20200;-90
2021/10/14 13:17:07;;;;;;;6.40;3.37;;;;;;;;;;5020744;28;20224;-90
2021/10/14 13:20:11;;;;;;;8.03;3.63;;;;;;;;;;5021039;28;20180;-90
2021/10/14 13:23:16;;;;;;;4.47;3.53;;;;;;;;;;5043362;28;20180;-90
2021/10/14 13:26:20;;;;;;;5.40;3.63;;;;;;;;;;5043534;28;20223;-90
2021/10/14 13:29:24;;;;;;;7.53;3.60;;;;;;;;;;5043358;28;20180;-90
2021/10/14 13:32:28;;;;;;;6.57;3.33;;;;;;;;;;5031655;28;20211;-90
2021/10/14 13:35:33;;;;;;;6.50;4.27;;;;;;;;;;5042874;28;20571;-89
2021/10/14 13:38:42;;;;;;;5.43;3.60;;;;;;;;;;5031536;28;20200;-90
2021/10/14 13:41:56;;;;;;;6.17;3.70;;;;;;;;;;5043094;28;20623;-90
2021/10/14 13:45:02;;;;;;;5.80;3.80;;;;;;;;;;5031907;28;20188;-90
2021/10/14 13:48:06;;;;;;;8.73;4.37;;;;;;;;;;5031490;28;20180;-90
2021/10/14 13:51:10;;;;;;;8.43;4.23;;;;;;;;;;5031632;28;20184;-90
2021/10/14 13:54:14;;;;;;;4.90;3.70;;;;;;;;;;5020161;28;20180;-90
2021/10/14 13:57:19;;;;;;;6.03;3.70;;;;;;;;;;5019940;28;20219;-90
2021/10/14 14:00:23;;;;;;;5.03;3.13;;;;;;;;;;5031473;28;20635;-90
2021/10/14 14:03:28;;;;;;;6.37;3.90;;;;;;;;;;5030662;28;20180;-90
2021/10/14 14:06:33;;;;;;;5.43;3.90;;;;;;;;;;5032493;28;20227;-90
2021/10/14 14:09:40;;;;;;;6.43;3.60;;;;;;;;;;5031951;28;20184;-90
2021/10/14 14:12:44;;;;;;;5.27;3.17;;;;;;;;;;5032419;28;20216;-90
2021/10/14 14:15:48;;;;;;;6.00;3.17;;;;;;;;;;5032129;28;20215;-90
2021/10/14 14:18:52;;;;;;;6.27;2.67;;;;;;;;;;5032526;28;20180;-90
2021/10/14 14:21:58;;;;;;;10.77;8.00;;;;;;;;;;5020703;28;20524;-90
2021/10/14 14:25:02;;;;;;;6.17;3.63;;;;;;;;;;5020100;28;20192;-90
2021/10/14 14:28:08;;;;;;;7.80;3.10;;;;;;;;;;5019725;28;20192;-89
2021/10/14 14:31:19;;;;;;;4.40;2.67;;;;;;;;;;5019551;28;20188;-89
2021/10/14 14:34:23;;;;;;;5.87;3.10;;;;;;;;;;5031122;28;20204;-86
2021/10/14 14:37:54;;;;;;;5.63;2.80;;;;;;;;;;5019745;28;20216;-87
2021/10/14 14:41:00;;;;;;;4.00;2.67;;;;;;;;;;5031613;28;20188;-86
2021/10/14 14:44:09;;;;;;;5.80;3.10;;;;;;;;;;5021820;28;20184;-88
2021/10/14 14:47:13;;;;;;;5.33;2.90;;;;;;;;;;5020202;28;20224;-89
2021/10/14 14:54:31;;;;;;;5.93;2.80;;;;;;;;;;4986819;28;20570;-88
2021/10/14 14:57:44;;;;;;;5.73;3.03;;;;;;;;;;4987726;28;20549;-88
2021/10/14 15:00:57;;;;;;;7.77;2.80;;;;;;;;;;5008136;28;20184;-88
2021/10/14 15:04:50;;;;;;;18.57;8.97;;;;;;;;;;5037254;28;20624;-89
2021/10/14 15:07:56;;;;;;;5.37;2.97;;;;;;;;;;5031429;28;20204;-89
2021/10/14 15:11:06;;;;;;;5.97;2.63;;;;;;;;;;5020310;28;20212;-88
2021/10/14 15:14:36;;;;;;;4.30;3.17;;;;;;;;;;5027133;28;20536;-89
2021/10/14 15:22:58;;;;;;;;;;;;;;;;;;;;;
2021/10/14 15:31:59;;;;;;;6.80;3.17;;;;;;;;;;5034977;28;20224;-87
2021/10/14 15:35:05;;;;;;;4.80;2.90;;;;;;;;;;4997585;28;20192;-88
2021/10/14 15:38:18;;;;;;;5.77;2.83;;;;;;;;;;5008027;28;20208;-88
2021/10/14 15:41:22;;;;;;;3.60;2.63;;;;;;;;;;5011734;28;20621;-88
2021/10/14 15:44:27;;;;;;;10.63;3.13;;;;;;;;;;5008205;28;20181;-88
2021/10/14 15:47:31;;;;;;;4.77;2.93;;;;;;;;;;4997016;28;20216;-88
2021/10/14 15:50:36;;;;;;;3.80;2.70;;;;;;;;;;4996744;28;20185;-88
2021/10/14 15:53:40;;;;;;;4.73;3.00;;;;;;;;;;5007581;28;20201;-88
2021/10/14 15:56:45;;;;;;;6.70;2.90;;;;;;;;;;5007954;28;20213;-88
2021/10/14 15:59:49;;;;;;;3.67;2.60;;;;;;;;;;5019328;28;20184;-88
2021/10/14 16:02:53;;;;;;;4.47;2.60;;;;;;;;;;5027089;28;20188;-88
2021/10/14 16:05:57;;;;;;;4.87;2.40;;;;;;;;;;5007833;28;20224;-88
2021/10/14 16:09:02;;;;;;;5.67;2.90;;;;;;;;;;5026388;28;20524;-87
2021/10/14 16:12:06;;;;;;;6.50;2.77;;;;;;;;;;5026808;28;20563;-88
2021/10/14 16:15:13;;;;;;;3.53;2.40;;;;;;;;;;5027019;28;20730;-88
2021/10/14 16:18:18;;;;;;;4.07;3.07;;;;;;;;;;5015826;28;20666;-87
2021/10/14 16:21:22;;;;;;;4.40;2.80;;;;;;;;;;5007234;28;20566;-87
2021/10/14 16:24:27;;;;;;;3.93;2.80;;;;;;;;;;5018979;28;20184;-88
2021/10/14 16:27:31;;;;;;;3.80;2.70;;;;;;;;;;5021418;28;20224;-88
2021/10/14 16:30:35;;;;;;;4.17;3.07;;;;;;;;;;5025956;28;20196;-88
2021/10/14 16:34:09;;;;;;;5.87;2.83;;;;;;;;;;5030085;28;20212;-88
2021/10/14 16:37:14;;;;;;;4.97;2.50;;;;;;;;;;5030802;28;20227;-87
2021/10/14 16:40:50;;;;;;;4.00;2.53;;;;;;;;;;5030733;28;20531;-88
2021/10/14 16:44:48;;;;;;;5.10;2.53;;;;;;;;;;5048264;28;20212;-88
2021/10/14 16:47:52;;;;;;;4.33;2.40;;;;;;;;;;5042232;28;20196;-89
2021/10/14 16:50:56;;;;;;;3.70;2.27;;;;;;;;;;5030447;28;20221;-88
2021/10/14 16:54:01;;;;;;;3.30;2.43;;;;;;;;;;5018782;28;20204;-87
2021/10/14 16:57:07;;;;;;;3.17;2.30;;;;;;;;;;5018778;28;20216;-88
2021/10/14 17:00:15;;;;;;;5.13;3.30;;;;;;;;;;5030259;28;20631;-88
2021/10/14 17:03:20;;;;;;;5.27;2.50;;;;;;;;;;5041411;28;20184;-88
2021/10/14 17:06:26;;;;;;;4.33;2.90;;;;;;;;;;5041186;28;20228;-88
2021/10/14 17:09:33;;;;;;;3.77;2.70;;;;;;;;;;5041215;28;20180;-88
2021/10/14 17:12:39;;;;;;;5.60;3.23;;;;;;;;;;5053203;28;20212;-87
2021/10/14 17:15:45;;;;;;;6.13;3.63;;;;;;;;;;5041525;28;20219;-88
2021/10/14 17:18:53;;;;;;;5.97;2.90;;;;;;;;;;5030419;28;20184;-87
2021/10/14 17:22:24;;;;;;;8.70;3.07;;;;;;;;;;5030335;28;20181;-88
2021/10/14 17:39:02;;;;;;;6.07;2.87;;;;;;;;;;5039961;28;20185;-88
2021/10/14 17:42:08;;;;;;;6.80;2.93;;;;;;;;;;5029555;28;20184;-88
2021/10/14 17:48:40;;;;;;;4.10;2.53;;;;;;;;;;5031032;28;20208;-88
2021/10/14 17:51:46;;;;;;;4.47;2.73;;;;;;;;;;5040085;28;20551;-87
2021/10/14 17:54:51;;;;;;;3.50;2.73;;;;;;;;;;5028831;28;20228;-87
2021/10/14 17:57:57;;;;;;;5.53;2.87;;;;;;;;;;5028717;28;20184;-87
2021/10/14 18:01:04;;;;;;;5.73;2.90;;;;;;;;;;5029360;28;20180;-88
2021/10/14 18:04:36;;;;;;;4.87;3.20;;;;;;;;;;5017835;28;20180;-87
2021/10/14 18:38:04;;;;;;;4.57;3.40;;;;;;;;;;5029568;28;20180;-87
2021/10/14 18:41:08;;;;;;;7.50;3.30;;;;;;;;;;5029165;28;20188;-88
2021/10/14 18:44:13;;;;;;;5.40;3.30;;;;;;;;;;5017194;28;20184;-88
2021/10/14 18:47:17;;;;;;;5.70;3.43;;;;;;;;;;5027904;28;20216;-87
2021/10/14 18:50:28;;;;;;;6.03;3.40;;;;;;;;;;5027931;28;20180;-87
2021/10/14 18:53:32;;;;;;;6.50;3.80;;;;;;;;;;5016302;28;20571;-88
2021/10/14 18:56:41;;;;;;;5.83;3.27;;;;;;;;;;5028246;28;20219;-88
2021/10/14 19:03:00;;;;;;;5.17;3.63;;;;;;;;;;5027801;28;20542;-88
2021/10/14 19:06:17;;;;;;;4.63;3.50;;;;;;;;;;5028009;28;20219;-87
2021/10/14 20:20:12;;;;;;;5.07;3.17;;;;;;;;;;5030770;28;20185;-88
2021/10/14 20:23:17;;;;;;;3.60;2.80;;;;;;;;;;5031069;28;20200;-88
2021/10/14 20:26:20;;;;;;;4.77;2.93;;;;;;;;;;5044874;22;20215;-90
2021/10/14 20:29:25;;;;;;;6.63;3.30;;;;;;;;;;5044418;28;20180;-90
2021/10/14 20:32:31;;;;;;;4.63;3.00;;;;;;;;;;5033002;28;20206;-90
2021/10/14 20:35:35;;;;;;;4.93;3.10;;;;;;;;;;5033370;28;20670;-90
2021/10/14 20:38:39;;;;;;;4.00;2.97;;;;;;;;;;5012902;28;20643;-90
2021/10/14 20:41:43;;;;;;;6.20;2.90;;;;;;;;;;5013212;28;20189;-90
2021/10/14 20:44:48;;;;;;;6.03;2.97;;;;;;;;;;5012960;28;20524;-90
2021/10/14 20:47:52;;;;;;;4.93;2.90;;;;;;;;;;5012858;28;20216;-90
2021/10/14 20:50:57;;;;;;;4.60;2.87;;;;;;;;;;5024409;28;20184;-90